Time;durP1;ratioP1;P1;durP2;ratioP2;P2;SDS_P1;SDS_P2;PMS_P1;PMS_P2;Temp;Humidity;BMP_temperature;BMP_pressure;BME280_temperature;BME280_humidity;BME280_pressure;Samples;Min_cycle;Max_cycle;Signal;HPM_P1;HPM_P2
2022/02/20 00:01:52;;;;;;;3.50;1.20;;;3.90;85.20;;;;;;4995799;28;20494;-85
2022/02/20 00:04:19;;;;;;;3.83;0.85;;;3.90;85.30;;;;;;5004672;28;20113;-85
2022/02/20 00:06:44;;;;;;;6.25;1.20;;;3.90;85.10;;;;;;4997102;28;20022;-84
2022/02/20 00:09:11;;;;;;;3.55;1.05;;;4.00;85.00;;;;;;4996982;28;20073;-86
2022/02/20 00:11:36;;;;;;;5.53;1.33;;;4.00;85.00;;;;;;4998218;28;20026;-85
2022/02/20 00:14:03;;;;;;;6.28;1.50;;;3.90;85.00;;;;;;4998019;28;20041;-85
2022/02/20 00:16:30;;;;;;;7.22;1.50;;;4.00;85.10;;;;;;4992393;28;20034;-85
2022/02/20 00:18:55;;;;;;;11.73;1.50;;;4.00;84.90;;;;;;4985762;28;20015;-85
2022/02/20 00:21:21;;;;;;;3.85;0.90;;;4.00;84.90;;;;;;4978438;28;20023;-85
2022/02/20 00:23:47;;;;;;;2.75;1.10;;;4.10;84.70;;;;;;4978213;28;20019;-85
2022/02/20 00:26:13;;;;;;;4.30;1.15;;;4.10;84.40;;;;;;4976632;28;20033;-85
2022/02/20 00:28:39;;;;;;;2.13;1.10;;;4.20;84.20;;;;;;4992260;28;20061;-85
2022/02/20 00:31:05;;;;;;;5.03;1.50;;;4.20;84.10;;;;;;4976315;28;20035;-85
2022/02/20 00:33:32;;;;;;;5.78;1.13;;;4.20;83.90;;;;;;4978382;28;20027;-85
2022/02/20 00:35:58;;;;;;;1.70;1.00;;;4.30;83.40;;;;;;4979042;28;20023;-85
2022/02/20 00:38:24;;;;;;;4.80;1.20;;;4.30;82.80;;;;;;4975771;28;20119;-85
2022/02/20 00:40:51;;;;;;;6.60;1.20;;;4.40;82.80;;;;;;4976520;28;20038;-86
2022/02/20 00:43:18;;;;;;;4.72;1.00;;;4.40;82.60;;;;;;4976502;28;20102;-85
2022/02/20 00:45:44;;;;;;;4.95;0.98;;;4.40;81.20;;;;;;4975925;28;20035;-85
2022/02/20 00:48:11;;;;;;;3.47;0.82;;;4.50;80.70;;;;;;4985263;28;20086;-85
2022/02/20 00:50:37;;;;;;;3.33;0.90;;;4.50;80.10;;;;;;4976350;28;20038;-85
2022/02/20 00:53:03;;;;;;;5.28;1.27;;;4.60;79.80;;;;;;4978045;28;20027;-85
2022/02/20 00:55:29;;;;;;;6.55;1.25;;;4.60;78.70;;;;;;4979162;28;20061;-85
2022/02/20 00:57:58;;;;;;;4.90;1.23;;;4.70;78.20;;;;;;4994998;28;20185;-84
2022/02/20 01:00:24;;;;;;;2.42;1.00;;;4.80;77.40;;;;;;4988527;28;20031;-84
2022/02/20 01:02:50;;;;;;;5.00;1.10;;;4.80;76.80;;;;;;4978455;28;20038;-84
2022/02/20 01:05:16;;;;;;;3.15;0.88;;;4.90;76.70;;;;;;4988658;28;20033;-84
2022/02/20 01:07:42;;;;;;;6.03;1.20;;;4.90;76.10;;;;;;4995090;28;20015;-84
2022/02/20 01:10:15;;;;;;;6.20;0.88;;;4.90;75.10;;;;;;4984449;28;20027;-85
2022/02/20 01:12:40;;;;;;;3.75;0.95;;;5.00;74.60;;;;;;4984579;28;20083;-84
2022/02/20 01:15:07;;;;;;;2.42;0.80;;;5.10;73.90;;;;;;4985205;28;20031;-85
2022/02/20 01:17:33;;;;;;;5.47;0.90;;;5.10;73.20;;;;;;4986976;28;20019;-84
2022/02/20 01:19:59;;;;;;;2.78;1.00;;;5.20;72.50;;;;;;4978055;28;20543;-84
2022/02/20 01:22:25;;;;;;;3.28;0.80;;;5.20;72.20;;;;;;4987068;28;20010;-84
2022/02/20 01:24:51;;;;;;;3.33;0.57;;;5.30;71.70;;;;;;4980534;28;20034;-85
2022/02/20 01:35:06;;;;;;;3.53;1.13;;;5.40;70.00;;;;;;4976453;28;20062;-85
2022/02/20 01:37:33;;;;;;;2.58;0.82;;;5.40;69.60;;;;;;4887840;29;20522;-86
2022/02/20 01:39:59;;;;;;;3.67;0.80;;;5.50;68.80;;;;;;4963316;28;20074;-85
2022/02/20 01:42:25;;;;;;;3.55;0.95;;;5.50;68.10;;;;;;4976987;28;20031;-85
2022/02/20 01:44:50;;;;;;;1.58;0.70;;;5.50;67.40;;;;;;4978273;28;20039;-85
2022/02/20 01:47:16;;;;;;;6.07;0.90;;;5.60;67.10;;;;;;4985177;28;20435;-86
2022/02/20 01:49:43;;;;;;;3.20;0.95;;;5.60;67.60;;;;;;4988841;28;20104;-85
2022/02/20 01:52:10;;;;;;;2.80;0.63;;;5.60;66.80;;;;;;5008323;28;20078;-84
2022/02/20 01:54:35;;;;;;;6.95;0.80;;;5.60;66.30;;;;;;5011161;28;20034;-84
2022/02/20 01:57:02;;;;;;;2.92;0.80;;;5.60;65.50;;;;;;4995799;28;20026;-85
2022/02/20 01:59:28;;;;;;;1.83;0.52;;;5.60;64.30;;;;;;4998133;28;20333;-83
2022/02/20 02:01:55;;;;;;;2.88;0.82;;;5.60;63.90;;;;;;4996894;28;20109;-84
2022/02/20 02:04:21;;;;;;;3.92;0.90;;;5.60;63.70;;;;;;4995973;28;20176;-86
2022/02/20 02:06:48;;;;;;;1.85;0.68;;;5.60;62.60;;;;;;4996281;28;20021;-86
2022/02/20 02:09:15;;;;;;;2.08;0.60;;;5.70;61.90;;;;;;4995431;28;20030;-86
2022/02/20 02:11:41;;;;;;;2.17;0.73;;;5.70;61.30;;;;;;4996508;28;20113;-84
2022/02/20 02:14:09;;;;;;;2.25;0.70;;;5.80;61.20;;;;;;4995696;28;20049;-84
2022/02/20 02:16:34;;;;;;;2.22;0.60;;;5.70;61.40;;;;;;4992062;28;20030;-85
2022/02/20 02:19:00;;;;;;;2.40;0.75;;;5.70;61.70;;;;;;4987491;28;20061;-84
2022/02/20 02:21:26;;;;;;;2.63;0.47;;;5.70;61.30;;;;;;4996054;28;20321;-84
2022/02/20 02:23:52;;;;;;;1.88;0.80;;;5.70;61.00;;;;;;4995966;28;20029;-85
2022/02/20 02:26:19;;;;;;;2.00;0.55;;;5.70;61.10;;;;;;4996047;28;20018;-85
2022/02/20 02:28:48;;;;;;;1.27;0.45;;;5.80;60.60;;;;;;4995550;28;20023;-84
2022/02/20 02:31:16;;;;;;;1.45;0.55;;;5.80;60.90;;;;;;5007596;28;20049;-84
2022/02/20 02:33:45;;;;;;;3.78;0.88;;;5.80;61.70;;;;;;5007955;28;20440;-85
2022/02/20 02:36:11;;;;;;;4.05;0.95;;;5.70;62.20;;;;;;5008449;28;20119;-85
2022/02/20 02:38:37;;;;;;;4.28;1.08;;;5.70;62.90;;;;;;5029305;23;20121;-80
2022/02/20 02:41:06;;;;;;;1.08;0.50;;;5.60;64.00;;;;;;5009977;28;20093;-81
2022/02/20 02:43:33;;;;;;;2.65;0.65;;;5.50;65.50;;;;;;4981375;28;20089;-79
2022/02/20 02:46:00;;;;;;;1.95;0.60;;;5.40;66.50;;;;;;4999779;28;20077;-81
2022/02/20 02:48:26;;;;;;;1.15;0.70;;;5.40;67.10;;;;;;5025987;28;20064;-80
2022/02/20 02:50:52;;;;;;;3.88;0.60;;;5.30;68.30;;;;;;5018343;28;20034;-80
2022/02/20 02:53:17;;;;;;;10.02;1.45;;;5.20;68.30;;;;;;5000607;28;20121;-79
2022/02/20 02:55:45;;;;;;;4.13;0.52;;;5.20;69.20;;;;;;5018797;28;20053;-80
2022/02/20 02:58:21;;;;;;;1.88;0.52;;;5.10;70.00;;;;;;5000669;28;20113;-79
2022/02/20 03:00:47;;;;;;;4.18;0.68;;;5.10;71.40;;;;;;5000355;28;20018;-81
2022/02/20 03:03:13;;;;;;;1.75;0.40;;;5.00;73.70;;;;;;5018725;28;20030;-79
2022/02/20 03:05:39;;;;;;;3.38;0.68;;;4.90;74.70;;;;;;5019079;28;20049;-80
2022/02/20 03:08:05;;;;;;;5.05;0.80;;;4.80;75.80;;;;;;5022907;28;20167;-80
2022/02/20 03:10:31;;;;;;;1.30;0.60;;;4.80;77.00;;;;;;5015495;28;20339;-81
2022/02/20 03:12:57;;;;;;;3.50;0.70;;;4.60;78.40;;;;;;5036029;28;20026;-82
2022/02/20 03:15:23;;;;;;;2.17;0.65;;;4.60;79.20;;;;;;5035768;28;20089;-80
2022/02/20 03:17:49;;;;;;;2.65;0.82;;;4.50;79.70;;;;;;5035593;28;20044;-81
2022/02/20 03:20:14;;;;;;;4.22;0.60;;;4.40;80.80;;;;;;5035372;28;20073;-78
2022/02/20 03:22:40;;;;;;;1.77;0.57;;;4.30;82.00;;;;;;5022638;28;20030;-79
2022/02/20 03:25:06;;;;;;;2.10;0.63;;;4.20;83.30;;;;;;5018584;28;20029;-82
2022/02/20 03:27:33;;;;;;;2.55;0.70;;;4.20;84.40;;;;;;5018221;28;20033;-80
2022/02/20 03:29:59;;;;;;;3.33;0.80;;;4.10;84.90;;;;;;5004540;28;20050;-80
2022/02/20 03:32:24;;;;;;;1.70;0.75;;;4.00;86.10;;;;;;5019617;28;20483;-80
2022/02/20 03:34:50;;;;;;;1.23;0.60;;;3.90;87.30;;;;;;5017302;28;20157;-81
2022/02/20 03:37:16;;;;;;;4.20;1.05;;;3.90;88.50;;;;;;5017634;28;20022;-79
2022/02/20 03:39:41;;;;;;;0.60;0.40;;;3.80;89.50;;;;;;5019309;28;20500;-79
2022/02/20 03:42:07;;;;;;;2.70;0.80;;;3.90;89.90;;;;;;5019097;28;20451;-79
2022/02/20 03:44:33;;;;;;;4.13;0.93;;;3.90;90.30;;;;;;5002430;28;20382;-81
2022/02/20 03:46:59;;;;;;;1.67;0.52;;;3.80;91.40;;;;;;5013309;28;20458;-79
2022/02/20 03:49:24;;;;;;;3.50;0.60;;;3.70;92.10;;;;;;5019099;28;20029;-79
2022/02/20 03:51:50;;;;;;;6.75;0.73;;;3.70;92.10;;;;;;5003217;28;20033;-79
2022/02/20 03:54:16;;;;;;;2.95;0.57;;;3.70;92.30;;;;;;5002949;28;20467;-79
2022/02/20 03:56:42;;;;;;;2.90;0.63;;;3.60;92.30;;;;;;5022294;28;20386;-80
2022/02/20 03:59:07;;;;;;;1.73;0.60;;;3.60;92.40;;;;;;5001770;28;20033;-80
2022/02/20 04:01:33;;;;;;;1.38;0.52;;;3.70;92.00;;;;;;5003589;28;20034;-81
2022/02/20 04:03:59;;;;;;;3.33;0.57;;;3.80;91.40;;;;;;5021175;28;20018;-79
2022/02/20 04:06:24;;;;;;;3.28;0.73;;;3.80;91.50;;;;;;5020425;28;20049;-81
2022/02/20 04:08:50;;;;;;;0.80;0.60;;;3.80;91.20;;;;;;5020917;28;20029;-80
2022/02/20 04:11:16;;;;;;;4.95;0.75;;;3.80;90.70;;;;;;5006687;28;20522;-78
2022/02/20 04:13:41;;;;;;;1.30;0.50;;;3.90;90.20;;;;;;5025823;28;20101;-80
2022/02/20 04:16:07;;;;;;;1.77;0.52;;;3.90;89.70;;;;;;5020009;28;20038;-81
2022/02/20 04:18:33;;;;;;;4.22;0.75;;;3.90;89.50;;;;;;5026189;28;20515;-78
2022/02/20 04:20:59;;;;;;;4.15;1.20;;;4.00;88.20;;;;;;5027042;28;20021;-79
2022/02/20 04:23:29;;;;;;;3.15;0.52;;;4.10;88.10;;;;;;5027006;28;20022;-79
2022/02/20 04:26:00;;;;;;;4.40;0.95;;;4.10;87.00;;;;;;5026957;28;20498;-78
2022/02/20 04:28:26;;;;;;;2.97;0.70;;;4.20;86.10;;;;;;5009756;28;20029;-80
2022/02/20 04:30:52;;;;;;;2.78;0.80;;;4.30;84.80;;;;;;5009164;28;20026;-79
2022/02/20 04:33:17;;;;;;;1.27;0.60;;;4.30;84.00;;;;;;5009310;28;20064;-77
2022/02/20 04:35:43;;;;;;;0.75;0.30;;;4.40;83.10;;;;;;5008678;28;20058;-79
2022/02/20 04:38:09;;;;;;;1.25;0.50;;;4.40;82.30;;;;;;5009622;28;20034;-78
2022/02/20 04:40:34;;;;;;;1.50;0.60;;;4.50;82.00;;;;;;5007961;28;20041;-80
2022/02/20 04:43:00;;;;;;;0.60;0.40;;;4.50;82.00;;;;;;5007352;28;20026;-81
2022/02/20 04:45:26;;;;;;;3.70;0.60;;;4.50;80.70;;;;;;5023902;28;20026;-81
2022/02/20 04:47:52;;;;;;;1.38;0.50;;;4.60;79.50;;;;;;5020996;28;20027;-78
2022/02/20 04:50:17;;;;;;;2.22;0.60;;;4.70;79.00;;;;;;5023089;28;20502;-79
2022/02/20 04:52:43;;;;;;;3.75;0.60;;;4.70;78.80;;;;;;5007394;28;20084;-80
2022/02/20 04:55:09;;;;;;;1.85;0.75;;;4.70;78.10;;;;;;5006165;28;20129;-79
2022/02/20 04:57:36;;;;;;;1.08;0.63;;;4.80;77.90;;;;;;5003629;28;20029;-79
2022/02/20 05:00:06;;;;;;;3.50;0.50;;;4.80;77.40;;;;;;5019576;28;20079;-78
2022/02/20 05:02:32;;;;;;;0.95;0.60;;;4.80;77.40;;;;;;5002571;28;20072;-79
2022/02/20 05:04:58;;;;;;;5.15;0.80;;;4.90;76.80;;;;;;5022719;28;20041;-78
2022/02/20 05:07:24;;;;;;;4.38;0.82;;;4.90;76.80;;;;;;5022605;28;20049;-79
2022/02/20 05:09:49;;;;;;;1.75;0.57;;;4.90;77.00;;;;;;5025081;28;20084;-78
2022/02/20 05:12:15;;;;;;;1.17;0.70;;;5.00;76.60;;;;;;5025587;28;20030;-78
2022/02/20 05:14:41;;;;;;;1.98;0.75;;;5.00;76.70;;;;;;5034375;28;20021;-83
2022/02/20 05:17:07;;;;;;;2.75;0.50;;;4.90;77.00;;;;;;5009185;28;20337;-80
2022/02/20 05:19:33;;;;;;;2.17;0.68;;;5.00;76.90;;;;;;5019221;28;20104;-79
2022/02/20 05:21:58;;;;;;;0.45;0.45;;;5.00;77.30;;;;;;5004765;28;20030;-80
2022/02/20 05:24:24;;;;;;;2.20;0.80;;;5.00;77.50;;;;;;5018930;28;20029;-80
2022/02/20 05:26:50;;;;;;;1.00;0.52;;;5.00;77.50;;;;;;5002104;28;20553;-79
2022/02/20 05:29:15;;;;;;;3.45;0.63;;;5.10;77.70;;;;;;5018692;28;20097;-80
2022/02/20 05:31:41;;;;;;;5.22;0.82;;;5.10;77.80;;;;;;5018356;28;20026;-79
2022/02/20 05:34:07;;;;;;;1.33;0.60;;;5.10;77.90;;;;;;4986764;28;20041;-80
2022/02/20 05:36:33;;;;;;;1.40;0.82;;;5.10;78.00;;;;;;5005872;28;20078;-81
2022/02/20 05:38:59;;;;;;;2.38;0.63;;;5.10;78.20;;;;;;5006343;28;20049;-81
2022/02/20 05:41:24;;;;;;;3.05;0.55;;;5.10;78.00;;;;;;4988463;28;20041;-81
2022/02/20 05:43:50;;;;;;;2.40;1.02;;;5.20;77.90;;;;;;5012326;28;20052;-79
2022/02/20 05:46:16;;;;;;;3.33;0.52;;;5.20;78.00;;;;;;5010575;28;20018;-79
2022/02/20 05:48:41;;;;;;;2.63;0.50;;;5.20;77.80;;;;;;5028398;28;20026;-79
2022/02/20 05:51:07;;;;;;;2.50;0.63;;;5.20;77.80;;;;;;5028587;28;20056;-80
2022/02/20 05:53:33;;;;;;;5.45;0.73;;;5.20;77.60;;;;;;5029559;28;20106;-78
2022/02/20 05:55:59;;;;;;;2.78;1.20;;;5.20;77.30;;;;;;5024254;28;20022;-81
2022/02/20 05:58:24;;;;;;;2.60;1.10;;;5.30;77.30;;;;;;5026848;28;20044;-81
2022/02/20 06:00:50;;;;;;;4.75;0.50;;;5.30;77.30;;;;;;5007047;28;20034;-81
2022/02/20 06:03:16;;;;;;;1.55;0.55;;;5.30;77.10;;;;;;5007277;28;20483;-80
2022/02/20 06:05:42;;;;;;;1.77;0.65;;;5.20;77.30;;;;;;5025820;28;20066;-81
2022/02/20 06:08:09;;;;;;;2.42;0.60;;;5.30;77.10;;;;;;5006801;28;20040;-79
2022/02/20 06:10:36;;;;;;;2.65;0.60;;;5.30;77.00;;;;;;5021876;28;20021;-79
2022/02/20 06:13:03;;;;;;;3.67;0.82;;;5.30;76.90;;;;;;5023154;28;20018;-79
2022/02/20 06:15:30;;;;;;;2.33;0.57;;;5.30;76.80;;;;;;5024705;28;20034;-79
2022/02/20 06:17:56;;;;;;;3.67;0.73;;;5.30;76.60;;;;;;5022992;28;20190;-80
2022/02/20 06:20:22;;;;;;;2.53;0.57;;;5.40;76.50;;;;;;5023255;28;20048;-80
2022/02/20 06:22:47;;;;;;;2.15;0.60;;;5.40;76.50;;;;;;5023872;28;20037;-81
2022/02/20 06:25:13;;;;;;;1.65;0.60;;;5.40;76.60;;;;;;5023255;28;20029;-80
2022/02/20 06:27:39;;;;;;;0.95;0.65;;;5.40;76.40;;;;;;5023190;28;20030;-80
2022/02/20 06:30:06;;;;;;;3.95;0.75;;;5.50;76.10;;;;;;5017813;28;20025;-81
2022/02/20 06:32:31;;;;;;;1.17;0.95;;;5.40;76.20;;;;;;5035098;28;20022;-80
2022/02/20 06:34:57;;;;;;;2.97;0.52;;;5.40;76.30;;;;;;5034934;28;20029;-80
2022/02/20 06:37:23;;;;;;;1.75;0.75;;;5.50;76.20;;;;;;5028460;28;20026;-80
2022/02/20 06:39:49;;;;;;;2.35;0.88;;;5.50;76.40;;;;;;5008581;28;20025;-81
2022/02/20 06:42:16;;;;;;;4.32;0.75;;;5.50;76.30;;;;;;5017778;28;20026;-77
2022/02/20 06:44:42;;;;;;;3.55;0.55;;;5.60;76.20;;;;;;5001787;28;20018;-78
2022/02/20 06:47:08;;;;;;;4.35;0.82;;;5.60;76.00;;;;;;4994630;28;20041;-79
2022/02/20 06:49:33;;;;;;;3.05;0.80;;;5.60;75.80;;;;;;5007779;28;20029;-78
2022/02/20 06:51:59;;;;;;;1.30;0.65;;;5.70;75.50;;;;;;4991435;28;20034;-79
2022/02/20 06:54:28;;;;;;;1.85;0.60;;;5.70;75.40;;;;;;4985300;28;20019;-79
2022/02/20 06:56:57;;;;;;;2.33;0.90;;;5.70;75.60;;;;;;4996986;28;20041;-80
2022/02/20 06:59:24;;;;;;;2.90;0.50;;;5.70;75.60;;;;;;4973687;28;20091;-79
2022/02/20 07:01:50;;;;;;;1.60;0.68;;;5.80;75.50;;;;;;4980811;28;20476;-79
2022/02/20 07:04:16;;;;;;;2.28;0.80;;;5.80;75.40;;;;;;4990544;28;20065;-79
2022/02/20 07:06:43;;;;;;;1.02;0.45;;;5.90;75.40;;;;;;4999643;28;20064;-78
2022/02/20 07:09:12;;;;;;;2.90;0.60;;;5.90;75.10;;;;;;4998292;28;20019;-77
2022/02/20 07:11:39;;;;;;;1.50;0.68;;;6.00;75.30;;;;;;5000801;28;20421;-79
2022/02/20 07:14:06;;;;;;;2.13;0.73;;;6.00;75.10;;;;;;4995846;28;20072;-77
2022/02/20 07:16:32;;;;;;;3.90;0.80;;;6.00;75.00;;;;;;5003420;28;20494;-78
2022/02/20 07:18:59;;;;;;;3.90;0.95;;;6.00;74.90;;;;;;5007778;28;20033;-77
2022/02/20 07:21:25;;;;;;;3.05;0.75;;;6.00;75.10;;;;;;5018223;28;20106;-78
2022/02/20 07:23:51;;;;;;;1.58;0.43;;;6.00;75.30;;;;;;5017606;28;20036;-78
2022/02/20 07:26:18;;;;;;;2.03;0.70;;;5.90;75.60;;;;;;5018010;28;20161;-78
2022/02/20 07:28:43;;;;;;;5.57;0.80;;;5.90;75.60;;;;;;4967253;28;20027;-77
2022/02/20 07:31:09;;;;;;;3.95;0.57;;;5.90;75.70;;;;;;4961245;28;20521;-78
2022/02/20 07:33:35;;;;;;;4.50;0.60;;;5.90;75.60;;;;;;4983290;28;20456;-77
2022/02/20 07:36:01;;;;;;;4.53;0.60;;;6.00;75.40;;;;;;4985252;28;20030;-76
2022/02/20 07:38:27;;;;;;;1.58;0.60;;;6.10;75.60;;;;;;4998447;28;20406;-80
2022/02/20 07:40:53;;;;;;;1.73;0.43;;;6.20;75.80;;;;;;5004226;28;20380;-79
2022/02/20 07:43:19;;;;;;;1.38;0.47;;;6.30;75.20;;;;;;4986616;28;20033;-80
2022/02/20 07:45:45;;;;;;;1.33;0.80;;;6.40;74.70;;;;;;4984411;28;20030;-79
2022/02/20 07:48:10;;;;;;;1.48;0.60;;;6.70;73.60;;;;;;5019880;28;20041;-79
2022/02/20 07:50:39;;;;;;;2.53;0.80;;;6.90;72.80;;;;;;4990161;28;20023;-80
2022/02/20 07:53:06;;;;;;;3.08;1.00;;;7.00;72.10;;;;;;4969929;28;20039;-82
2022/02/20 07:55:33;;;;;;;1.60;0.73;;;7.00;71.80;;;;;;4986707;28;20063;-78
2022/02/20 07:58:09;;;;;;;1.65;0.65;;;7.10;71.40;;;;;;4986871;28;20527;-80
2022/02/20 08:00:36;;;;;;;3.22;0.52;;;7.00;71.60;;;;;;4986609;28;20054;-79
2022/02/20 08:03:02;;;;;;;2.40;0.60;;;7.00;71.70;;;;;;4979640;28;20057;-79
2022/02/20 08:05:28;;;;;;;4.00;0.88;;;7.00;72.10;;;;;;4967306;28;20027;-78
2022/02/20 08:07:54;;;;;;;1.42;0.80;;;7.00;71.80;;;;;;4997936;28;20081;-79
2022/02/20 08:10:20;;;;;;;1.15;0.60;;;7.00;71.60;;;;;;4997860;28;20026;-79
2022/02/20 08:12:47;;;;;;;1.92;0.60;;;7.00;71.80;;;;;;4998457;28;20464;-78
2022/02/20 08:15:13;;;;;;;1.08;0.60;;;7.10;71.40;;;;;;4993843;28;20093;-79
2022/02/20 08:17:46;;;;;;;2.30;0.75;;;7.10;71.30;;;;;;4993310;28;20029;-80
2022/02/20 08:20:14;;;;;;;4.70;0.85;;;7.20;71.10;;;;;;5000859;28;20033;-79
2022/02/20 08:22:40;;;;;;;4.15;1.40;;;7.20;71.20;;;;;;5017787;28;20053;-80
2022/02/20 08:25:07;;;;;;;3.75;0.98;;;7.30;71.00;;;;;;5012093;28;20026;-78
2022/02/20 08:27:34;;;;;;;1.27;0.65;;;7.30;70.80;;;;;;4998462;28;20030;-78
2022/02/20 08:30:00;;;;;;;4.05;0.60;;;7.20;71.00;;;;;;4985718;28;20026;-77
2022/02/20 08:32:26;;;;;;;3.22;0.88;;;7.20;71.30;;;;;;4988785;28;20499;-78
2022/02/20 08:34:51;;;;;;;4.60;0.68;;;7.20;70.50;;;;;;5017646;28;20034;-81
2022/02/20 08:37:17;;;;;;;2.05;0.70;;;7.20;70.90;;;;;;4965697;28;20129;-78
2022/02/20 08:39:43;;;;;;;1.00;0.70;;;7.20;70.90;;;;;;4979930;28;20488;-78
2022/02/20 08:42:09;;;;;;;3.10;0.50;;;7.10;71.30;;;;;;4963829;28;20458;-78
2022/02/20 08:44:36;;;;;;;1.42;0.57;;;7.10;70.80;;;;;;4988138;28;20027;-81
2022/02/20 08:47:02;;;;;;;1.73;0.80;;;7.00;71.20;;;;;;5055202;23;20042;-85
2022/02/20 08:49:29;;;;;;;1.63;0.32;;;7.00;71.50;;;;;;5051938;28;20057;-85
2022/02/20 08:51:55;;;;;;;1.90;0.63;;;6.90;72.10;;;;;;5031979;28;20053;-85
2022/02/20 08:54:21;;;;;;;4.85;0.57;;;6.90;72.10;;;;;;5033612;28;20033;-87
2022/02/20 08:56:47;;;;;;;2.55;0.60;;;7.00;72.20;;;;;;5020118;28;20030;-82
2022/02/20 08:59:12;;;;;;;1.20;0.70;;;7.00;71.70;;;;;;5000804;28;20041;-82
2022/02/20 09:01:38;;;;;;;2.85;0.93;;;7.20;71.80;;;;;;5002240;28;20034;-84
2022/02/20 09:04:04;;;;;;;2.95;0.60;;;7.30;71.50;;;;;;5001539;28;20038;-84
2022/02/20 09:06:34;;;;;;;1.88;0.70;;;7.40;70.70;;;;;;5005156;28;20026;-84
2022/02/20 09:09:00;;;;;;;2.22;0.57;;;7.60;70.60;;;;;;5015187;28;20029;-84
2022/02/20 09:11:28;;;;;;;3.13;0.70;;;7.80;69.80;;;;;;5023791;28;20029;-85
2022/02/20 09:13:54;;;;;;;3.83;0.70;;;7.90;69.00;;;;;;5011592;28;20030;-84
2022/02/20 09:16:19;;;;;;;3.70;0.88;;;8.00;69.10;;;;;;5018518;28;20076;-84
2022/02/20 09:18:45;;;;;;;4.00;0.60;;;8.10;68.50;;;;;;5032310;28;20022;-84
2022/02/20 09:21:12;;;;;;;0.88;0.68;;;8.10;68.00;;;;;;5007839;28;20022;-84
2022/02/20 09:23:38;;;;;;;4.13;0.75;;;8.20;68.10;;;;;;4999451;28;20022;-84
2022/02/20 09:26:05;;;;;;;3.20;1.02;;;8.20;67.90;;;;;;5009254;28;20026;-84
2022/02/20 09:28:30;;;;;;;1.50;0.50;;;8.30;67.90;;;;;;5007087;28;20034;-84
2022/02/20 09:30:56;;;;;;;3.38;0.60;;;8.50;67.50;;;;;;5006394;28;20032;-83
2022/02/20 09:33:22;;;;;;;2.08;0.60;;;8.50;67.10;;;;;;5010175;28;20106;-84
2022/02/20 09:35:48;;;;;;;2.33;0.43;;;8.60;66.70;;;;;;5007570;28;20026;-84
2022/02/20 09:38:13;;;;;;;2.45;0.40;;;8.70;66.50;;;;;;5007350;28;20034;-84
2022/02/20 09:40:39;;;;;;;1.38;0.70;;;8.70;66.50;;;;;;5005645;28;20038;-84
2022/02/20 09:43:05;;;;;;;1.10;0.65;;;8.90;66.20;;;;;;5015052;28;20106;-84
2022/02/20 09:45:31;;;;;;;2.00;0.70;;;9.00;65.50;;;;;;5025793;28;20018;-83
2022/02/20 09:48:06;;;;;;;0.88;0.40;;;9.20;65.00;;;;;;5039767;28;20029;-83
2022/02/20 09:50:32;;;;;;;2.15;0.50;;;9.30;65.30;;;;;;5052821;28;20014;-84
2022/02/20 09:52:57;;;;;;;4.25;0.88;;;9.40;65.10;;;;;;5035968;28;20042;-82
2022/02/20 09:55:23;;;;;;;0.95;0.40;;;9.60;64.50;;;;;;5017565;28;20045;-84
2022/02/20 09:57:49;;;;;;;1.40;0.70;;;9.80;63.80;;;;;;5017014;28;20082;-83
2022/02/20 10:00:15;;;;;;;1.20;0.50;;;10.00;63.30;;;;;;5032257;28;20098;-84
2022/02/20 10:02:44;;;;;;;3.05;0.50;;;10.20;62.50;;;;;;5034709;28;20025;-84
2022/02/20 10:05:20;;;;;;;0.80;0.40;;;10.20;61.80;;;;;;5018018;28;20015;-83
2022/02/20 10:07:46;;;;;;;3.25;0.50;;;10.40;62.00;;;;;;5027635;28;20036;-84
2022/02/20 10:10:31;;;;;;;2.58;0.63;;;10.50;61.70;;;;;;5025739;28;20025;-84
2022/02/20 10:13:03;;;;;;;0.50;0.50;;;10.50;61.30;;;;;;5026741;28;20032;-84
2022/02/20 10:15:31;;;;;;;2.20;1.37;;;10.50;61.10;;;;;;5024969;28;20030;-84
2022/02/20 10:18:15;;;;;;;1.08;0.50;;;10.70;61.20;;;;;;5032157;28;20281;-84
2022/02/20 10:20:41;;;;;;;2.10;0.65;;;11.00;60.70;;;;;;5014776;28;20030;-83
2022/02/20 10:23:08;;;;;;;1.70;0.88;;;11.10;59.70;;;;;;5021680;28;20076;-84
2022/02/20 10:25:35;;;;;;;2.35;0.52;;;11.00;59.20;;;;;;5019859;28;20139;-83
2022/02/20 10:28:05;;;;;;;0.73;0.63;;;11.20;59.30;;;;;;5008121;28;20417;-83
2022/02/20 10:30:32;;;;;;;3.67;1.08;;;11.30;58.90;;;;;;5015344;28;20096;-83
2022/02/20 10:33:05;;;;;;;3.15;0.80;;;11.10;58.40;;;;;;4995736;28;20050;-83
2022/02/20 10:35:33;;;;;;;3.03;0.65;;;10.90;58.70;;;;;;5001321;28;20037;-84
2022/02/20 10:38:05;;;;;;;1.83;0.60;;;10.80;59.00;;;;;;5004702;28;20196;-83
2022/02/20 10:40:31;;;;;;;0.50;0.47;;;10.80;59.20;;;;;;5021915;28;20053;-83
2022/02/20 10:43:03;;;;;;;1.65;0.68;;;10.90;59.40;;;;;;4999996;28;20077;-84
2022/02/20 10:45:39;;;;;;;1.90;0.73;;;11.10;59.00;;;;;;5003403;28;20117;-84
2022/02/20 10:48:15;;;;;;;3.38;0.50;;;11.20;58.80;;;;;;5021353;28;20319;-84
2022/02/20 10:50:41;;;;;;;3.10;0.63;;;11.40;57.70;;;;;;5004665;28;20084;-83
2022/02/20 10:53:18;;;;;;;0.60;0.30;;;11.30;57.80;;;;;;5003952;28;20479;-83
2022/02/20 10:55:47;;;;;;;1.52;0.52;;;11.20;58.10;;;;;;5002281;28;20038;-82
2022/02/20 10:58:16;;;;;;;1.85;0.38;;;11.10;58.30;;;;;;5010046;28;20034;-83
2022/02/20 11:00:47;;;;;;;2.35;0.75;;;11.20;58.20;;;;;;5004559;28;20145;-84
2022/02/20 11:03:17;;;;;;;2.10;0.68;;;11.30;58.10;;;;;;5005435;28;20030;-83
2022/02/20 11:05:43;;;;;;;1.67;0.50;;;11.40;57.60;;;;;;5020752;28;20021;-84
2022/02/20 11:08:12;;;;;;;2.15;0.68;;;11.50;57.40;;;;;;5004705;28;20038;-83
2022/02/20 11:10:40;;;;;;;4.13;0.55;;;11.60;57.00;;;;;;5003474;28;20183;-84
2022/02/20 11:13:08;;;;;;;5.20;0.70;;;11.50;56.90;;;;;;5009442;28;20033;-83
2022/02/20 11:15:34;;;;;;;2.30;0.50;;;11.50;56.90;;;;;;5025826;28;20056;-84
2022/02/20 11:18:02;;;;;;;1.17;0.60;;;11.40;56.70;;;;;;5030455;28;20090;-84
2022/02/20 11:20:30;;;;;;;0.75;0.50;;;11.30;57.30;;;;;;5040660;28;20028;-83
2022/02/20 11:23:00;;;;;;;0.75;0.35;;;11.40;57.30;;;;;;5015844;28;20206;-84
2022/02/20 11:25:31;;;;;;;2.25;0.45;;;11.40;56.60;;;;;;5019303;28;20482;-84
2022/02/20 11:27:59;;;;;;;2.15;0.50;;;11.30;56.90;;;;;;4994044;28;20105;-84
2022/02/20 11:30:26;;;;;;;0.77;0.52;;;11.20;57.30;;;;;;5020761;28;20022;-83
2022/02/20 11:32:56;;;;;;;1.25;0.60;;;11.20;57.30;;;;;;5021076;28;20021;-83
2022/02/20 11:35:22;;;;;;;1.70;0.47;;;11.20;57.70;;;;;;5003335;28;20030;-85
2022/02/20 11:37:54;;;;;;;1.98;0.50;;;11.20;57.60;;;;;;5006885;28;20076;-83
2022/02/20 11:40:21;;;;;;;1.48;0.63;;;11.30;57.00;;;;;;5001477;28;20019;-83
2022/02/20 11:43:01;;;;;;;0.68;0.40;;;11.30;57.30;;;;;;5001795;28;20051;-85
2022/02/20 11:45:30;;;;;;;3.03;0.63;;;11.40;57.00;;;;;;5009291;28;20018;-87
2022/02/20 11:48:07;;;;;;;2.70;0.50;;;11.50;56.90;;;;;;5034405;28;20029;-87
2022/02/20 11:50:36;;;;;;;1.13;0.40;;;11.60;56.20;;;;;;5038849;28;20022;-87
2022/02/20 11:53:07;;;;;;;2.17;0.50;;;11.80;55.80;;;;;;5023690;28;20021;-87
2022/02/20 11:55:42;;;;;;;1.00;0.57;;;12.10;55.10;;;;;;5024215;28;20030;-87
2022/02/20 11:58:16;;;;;;;1.30;0.40;;;12.20;54.20;;;;;;5023658;28;20030;-88
2022/02/20 12:00:59;;;;;;;0.50;0.50;;;12.20;54.50;;;;;;5009190;28;20032;-88
2022/02/20 12:03:46;;;;;;;0.95;0.52;;;12.10;54.80;;;;;;5023062;28;20072;-87
2022/02/20 12:06:17;;;;;;;1.60;0.40;;;12.20;54.30;;;;;;5043176;28;20083;-87
2022/02/20 12:08:48;;;;;;;1.05;0.35;;;12.10;54.30;;;;;;5028451;28;20043;-89
2022/02/20 12:11:21;;;;;;;1.60;0.55;;;11.90;54.70;;;;;;5030511;28;20059;-87
2022/02/20 12:13:57;;;;;;;;;;;11.80;55.40;;;;;;5037378;28;20093;-87
2022/02/20 12:16:26;;;;;;;1.65;0.60;;;11.90;55.80;;;;;;5043540;28;19988;-88
2022/02/20 12:19:11;;;;;;;2.00;0.40;;;12.10;55.40;;;;;;5049149;28;20036;-88
2022/02/20 12:22:00;;;;;;;1.42;0.30;;;12.30;54.30;;;;;;5000734;28;20094;-87
2022/02/20 12:24:42;;;;;;;0.35;0.20;;;12.30;54.00;;;;;;5000276;28;20034;-88
2022/02/20 12:27:15;;;;;;;1.00;0.50;;;12.40;54.00;;;;;;5012609;28;20030;-87
2022/02/20 12:29:46;;;;;;;1.50;0.30;;;12.50;53.60;;;;;;5002280;28;20394;-88
2022/02/20 12:32:24;;;;;;;0.75;0.30;;;12.70;53.30;;;;;;5000284;28;20065;-88
2022/02/20 12:35:12;;;;;;;1.38;0.50;;;13.00;52.50;;;;;;5026694;28;20073;-89
2022/02/20 12:37:41;;;;;;;1.98;0.47;;;13.10;52.40;;;;;;5028483;28;20029;-88
2022/02/20 12:40:29;;;;;;;1.55;0.47;;;13.20;52.10;;;;;;5021124;28;20033;-88
2022/02/20 12:43:07;;;;;;;2.15;0.60;;;13.20;51.40;;;;;;4983781;28;20029;-87
2022/02/20 12:45:36;;;;;;;0.70;0.52;;;13.00;52.50;;;;;;4987042;28;20478;-88
2022/02/20 12:48:07;;;;;;;1.23;0.30;;;12.90;51.90;;;;;;5007858;28;20518;-88
2022/02/20 12:50:44;;;;;;;3.55;0.68;;;13.10;51.90;;;;;;4981722;28;20027;-88
2022/02/20 12:53:10;;;;;;;1.33;0.60;;;13.10;51.50;;;;;;5001571;28;20109;-85
2022/02/20 12:55:40;;;;;;;0.47;0.32;;;13.10;51.40;;;;;;4983624;28;20026;-88
2022/02/20 12:58:08;;;;;;;0.95;0.40;;;12.90;52.10;;;;;;4981576;28;20031;-86
2022/02/20 13:01:04;;;;;;;1.60;0.45;;;12.70;52.50;;;;;;4983228;28;20110;-87
2022/02/20 13:04:10;;;;;;;0.60;0.38;;;12.50;53.30;;;;;;5000427;28;20026;-88
2022/02/20 13:07:26;;;;;;;2.10;0.65;;;12.30;53.90;;;;;;5055183;23;20075;-86